sensor_id;sensor_type;location;lat;lon;timestamp;P1;durP1;ratioP1;P2;durP2;ratioP2
22849;SDS011;11591;44.792;10.358;2023-02-13T00:01:55;98.18;;;40.78;;
22849;SDS011;11591;44.792;10.358;2023-02-13T00:04:21;105.93;;;40.78;;
22849;SDS011;11591;44.792;10.358;2023-02-13T00:06:47;91.78;;;38.88;;
22849;SDS011;11591;44.792;10.358;2023-02-13T00:09:13;98.05;;;41.00;;
22849;SDS011;11591;44.792;10.358;2023-02-13T00:11:39;93.97;;;39.78;;
22849;SDS011;11591;44.792;10.358;2023-02-13T00:14:05;95.60;;;38.35;;
22849;SDS011;11591;44.792;10.358;2023-02-13T00:16:31;101.22;;;38.03;;
22849;SDS011;11591;44.792;10.358;2023-02-13T00:18:58;94.20;;;38.28;;
22849;SDS011;11591;44.792;10.358;2023-02-13T00:21:23;89.82;;;37.25;;
22849;SDS011;11591;44.792;10.358;2023-02-13T00:23:49;92.78;;;38.53;;
22849;SDS011;11591;44.792;10.358;2023-02-13T00:26:15;87.65;;;37.58;;
22849;SDS011;11591;44.792;10.358;2023-02-13T00:28:43;79.43;;;34.53;;
22849;SDS011;11591;44.792;10.358;2023-02-13T00:31:10;86.57;;;36.05;;
22849;SDS011;11591;44.792;10.358;2023-02-13T00:33:38;80.03;;;35.05;;
22849;SDS011;11591;44.792;10.358;2023-02-13T00:36:05;87.10;;;35.97;;
22849;SDS011;11591;44.792;10.358;2023-02-13T00:38:33;84.03;;;35.15;;
22849;SDS011;11591;44.792;10.358;2023-02-13T00:41:00;91.63;;;35.30;;
22849;SDS011;11591;44.792;10.358;2023-02-13T00:43:26;84.22;;;33.13;;
22849;SDS011;11591;44.792;10.358;2023-02-13T00:45:52;78.63;;;33.05;;
22849;SDS011;11591;44.792;10.358;2023-02-13T00:48:18;78.90;;;32.17;;
22849;SDS011;11591;44.792;10.358;2023-02-13T00:50:45;81.72;;;34.13;;
22849;SDS011;11591;44.792;10.358;2023-02-13T00:53:11;85.05;;;34.92;;
22849;SDS011;11591;44.792;10.358;2023-02-13T00:55:37;82.70;;;35.47;;
22849;SDS011;11591;44.792;10.358;2023-02-13T00:58:03;87.80;;;36.35;;
22849;SDS011;11591;44.792;10.358;2023-02-13T01:00:29;90.93;;;37.25;;
22849;SDS011;11591;44.792;10.358;2023-02-13T01:02:55;89.38;;;36.90;;
22849;SDS011;11591;44.792;10.358;2023-02-13T01:05:21;87.03;;;37.88;;
22849;SDS011;11591;44.792;10.358;2023-02-13T01:07:46;91.18;;;36.78;;
22849;SDS011;11591;44.792;10.358;2023-02-13T01:10:12;93.15;;;38.63;;
22849;SDS011;11591;44.792;10.358;2023-02-13T01:12:38;95.03;;;39.22;;
22849;SDS011;11591;44.792;10.358;2023-02-13T01:15:05;99.22;;;40.30;;
22849;SDS011;11591;44.792;10.358;2023-02-13T01:17:31;93.60;;;38.05;;
22849;SDS011;11591;44.792;10.358;2023-02-13T01:19:57;94.53;;;38.33;;
22849;SDS011;11591;44.792;10.358;2023-02-13T01:22:23;93.88;;;38.08;;
22849;SDS011;11591;44.792;10.358;2023-02-13T01:24:49;99.20;;;39.95;;
22849;SDS011;11591;44.792;10.358;2023-02-13T01:27:14;100.10;;;39.55;;
22849;SDS011;11591;44.792;10.358;2023-02-13T01:29:40;103.65;;;40.30;;
22849;SDS011;11591;44.792;10.358;2023-02-13T01:32:06;93.40;;;38.72;;
22849;SDS011;11591;44.792;10.358;2023-02-13T01:34:32;94.50;;;38.97;;
22849;SDS011;11591;44.792;10.358;2023-02-13T01:36:58;92.95;;;37.05;;
22849;SDS011;11591;44.792;10.358;2023-02-13T01:39:24;94.90;;;40.17;;
22849;SDS011;11591;44.792;10.358;2023-02-13T01:41:50;102.63;;;40.28;;
22849;SDS011;11591;44.792;10.358;2023-02-13T01:47:14;94.05;;;38.90;;
22849;SDS011;11591;44.792;10.358;2023-02-13T01:50:02;96.35;;;39.20;;
22849;SDS011;11591;44.792;10.358;2023-02-13T01:52:49;96.43;;;38.13;;
22849;SDS011;11591;44.792;10.358;2023-02-13T01:55:24;99.82;;;39.75;;
22849;SDS011;11591;44.792;10.358;2023-02-13T01:57:53;94.95;;;38.42;;
22849;SDS011;11591;44.792;10.358;2023-02-13T02:00:23;92.80;;;38.67;;
22849;SDS011;11591;44.792;10.358;2023-02-13T02:02:51;93.75;;;38.33;;
22849;SDS011;11591;44.792;10.358;2023-02-13T02:05:26;90.97;;;37.88;;
22849;SDS011;11591;44.792;10.358;2023-02-13T02:07:54;95.47;;;37.15;;
22849;SDS011;11591;44.792;10.358;2023-02-13T02:10:23;90.10;;;38.05;;
22849;SDS011;11591;44.792;10.358;2023-02-13T02:13:32;91.25;;;37.97;;
22849;SDS011;11591;44.792;10.358;2023-02-13T02:15:43;94.95;;;38.28;;
22849;SDS011;11591;44.792;10.358;2023-02-13T02:18:27;96.53;;;39.35;;
22849;SDS011;11591;44.792;10.358;2023-02-13T02:38:49;99.05;;;37.35;;
22849;SDS011;11591;44.792;10.358;2023-02-13T02:41:28;99.65;;;39.97;;
22849;SDS011;11591;44.792;10.358;2023-02-13T02:47:28;97.05;;;38.20;;
22849;SDS011;11591;44.792;10.358;2023-02-13T02:50:19;93.47;;;37.40;;
22849;SDS011;11591;44.792;10.358;2023-02-13T03:01:02;100.28;;;40.05;;
22849;SDS011;11591;44.792;10.358;2023-02-13T03:03:50;103.75;;;40.00;;
22849;SDS011;11591;44.792;10.358;2023-02-13T03:06:48;100.40;;;39.58;;
22849;SDS011;11591;44.792;10.358;2023-02-13T03:09:19;93.15;;;38.05;;
22849;SDS011;11591;44.792;10.358;2023-02-13T03:12:18;94.95;;;37.42;;
22849;SDS011;11591;44.792;10.358;2023-02-13T03:15:05;89.30;;;36.72;;
22849;SDS011;11591;44.792;10.358;2023-02-13T03:17:31;90.75;;;35.60;;
22849;SDS011;11591;44.792;10.358;2023-02-13T03:23:14;82.65;;;34.38;;
22849;SDS011;11591;44.792;10.358;2023-02-13T03:26:10;85.45;;;33.60;;
22849;SDS011;11591;44.792;10.358;2023-02-13T03:29:03;83.28;;;34.67;;
22849;SDS011;11591;44.792;10.358;2023-02-13T03:32:00;91.22;;;33.65;;
22849;SDS011;11591;44.792;10.358;2023-02-13T03:34:42;91.32;;;34.72;;
22849;SDS011;11591;44.792;10.358;2023-02-13T03:37:34;95.50;;;35.58;;
22849;SDS011;11591;44.792;10.358;2023-02-13T03:41:22;86.63;;;34.28;;
22849;SDS011;11591;44.792;10.358;2023-02-13T03:46:36;90.47;;;33.13;;
22849;SDS011;11591;44.792;10.358;2023-02-13T03:49:06;91.13;;;35.30;;
22849;SDS011;11591;44.792;10.358;2023-02-13T03:51:58;92.63;;;36.58;;
22849;SDS011;11591;44.792;10.358;2023-02-13T03:54:33;84.32;;;33.22;;
22849;SDS011;11591;44.792;10.358;2023-02-13T03:57:27;86.28;;;34.60;;
22849;SDS011;11591;44.792;10.358;2023-02-13T04:00:15;91.20;;;35.35;;
22849;SDS011;11591;44.792;10.358;2023-02-13T04:02:53;99.45;;;37.15;;
22849;SDS011;11591;44.792;10.358;2023-02-13T04:05:32;95.78;;;37.72;;
22849;SDS011;11591;44.792;10.358;2023-02-13T04:08:05;91.93;;;35.95;;
22849;SDS011;11591;44.792;10.358;2023-02-13T04:10:31;88.53;;;37.03;;
22849;SDS011;11591;44.792;10.358;2023-02-13T04:13:02;95.43;;;38.10;;
22849;SDS011;11591;44.792;10.358;2023-02-13T04:20:37;89.95;;;36.08;;
22849;SDS011;11591;44.792;10.358;2023-02-13T04:23:07;90.82;;;35.00;;
22849;SDS011;11591;44.792;10.358;2023-02-13T04:25:35;78.55;;;32.80;;
22849;SDS011;11591;44.792;10.358;2023-02-13T04:28:03;82.80;;;31.95;;
22849;SDS011;11591;44.792;10.358;2023-02-13T04:30:29;82.40;;;32.88;;
22849;SDS011;11591;44.792;10.358;2023-02-13T04:32:55;79.70;;;32.50;;
22849;SDS011;11591;44.792;10.358;2023-02-13T04:35:21;83.60;;;33.35;;
22849;SDS011;11591;44.792;10.358;2023-02-13T04:37:47;86.72;;;31.75;;
22849;SDS011;11591;44.792;10.358;2023-02-13T04:40:13;82.13;;;30.45;;
22849;SDS011;11591;44.792;10.358;2023-02-13T04:42:39;79.47;;;30.40;;
22849;SDS011;11591;44.792;10.358;2023-02-13T04:45:04;80.13;;;30.17;;
22849;SDS011;11591;44.792;10.358;2023-02-13T04:47:30;82.45;;;30.63;;
22849;SDS011;11591;44.792;10.358;2023-02-13T04:49:56;74.68;;;27.50;;
22849;SDS011;11591;44.792;10.358;2023-02-13T04:52:22;72.97;;;28.08;;
22849;SDS011;11591;44.792;10.358;2023-02-13T04:54:48;70.78;;;27.90;;
22849;SDS011;11591;44.792;10.358;2023-02-13T04:57:14;70.03;;;28.83;;
22849;SDS011;11591;44.792;10.358;2023-02-13T04:59:39;79.75;;;27.95;;
22849;SDS011;11591;44.792;10.358;2023-02-13T05:02:05;66.15;;;26.88;;
22849;SDS011;11591;44.792;10.358;2023-02-13T05:04:31;72.32;;;27.80;;
22849;SDS011;11591;44.792;10.358;2023-02-13T05:06:57;69.13;;;27.85;;
22849;SDS011;11591;44.792;10.358;2023-02-13T05:09:23;73.10;;;27.52;;
22849;SDS011;11591;44.792;10.358;2023-02-13T05:11:52;69.15;;;26.08;;
22849;SDS011;11591;44.792;10.358;2023-02-13T05:14:18;71.22;;;27.60;;
22849;SDS011;11591;44.792;10.358;2023-02-13T05:16:46;66.75;;;27.70;;
22849;SDS011;11591;44.792;10.358;2023-02-13T05:19:11;78.95;;;29.08;;
22849;SDS011;11591;44.792;10.358;2023-02-13T05:21:37;70.93;;;28.10;;
22849;SDS011;11591;44.792;10.358;2023-02-13T05:24:21;78.75;;;29.52;;
22849;SDS011;11591;44.792;10.358;2023-02-13T05:26:47;72.55;;;28.40;;
22849;SDS011;11591;44.792;10.358;2023-02-13T05:29:13;77.07;;;28.88;;
22849;SDS011;11591;44.792;10.358;2023-02-13T05:31:53;72.03;;;27.85;;
22849;SDS011;11591;44.792;10.358;2023-02-13T05:34:22;68.80;;;27.67;;
22849;SDS011;11591;44.792;10.358;2023-02-13T05:36:49;78.22;;;28.98;;
22849;SDS011;11591;44.792;10.358;2023-02-13T05:39:15;73.03;;;27.63;;
22849;SDS011;11591;44.792;10.358;2023-02-13T05:41:42;70.88;;;27.20;;
22849;SDS011;11591;44.792;10.358;2023-02-13T05:44:08;71.57;;;27.75;;
22849;SDS011;11591;44.792;10.358;2023-02-13T05:46:35;67.03;;;26.35;;
22849;SDS011;11591;44.792;10.358;2023-02-13T05:49:03;64.45;;;27.00;;
22849;SDS011;11591;44.792;10.358;2023-02-13T05:51:29;70.93;;;25.17;;
22849;SDS011;11591;44.792;10.358;2023-02-13T05:53:55;59.55;;;23.98;;
22849;SDS011;11591;44.792;10.358;2023-02-13T05:56:21;65.25;;;24.40;;
22849;SDS011;11591;44.792;10.358;2023-02-13T05:58:47;62.20;;;25.63;;
22849;SDS011;11591;44.792;10.358;2023-02-13T06:01:16;67.15;;;24.90;;
22849;SDS011;11591;44.792;10.358;2023-02-13T06:03:42;64.75;;;25.08;;
22849;SDS011;11591;44.792;10.358;2023-02-13T06:06:07;61.13;;;24.52;;
22849;SDS011;11591;44.792;10.358;2023-02-13T06:08:33;67.63;;;27.80;;
22849;SDS011;11591;44.792;10.358;2023-02-13T06:10:59;72.72;;;26.95;;
22849;SDS011;11591;44.792;10.358;2023-02-13T06:13:25;69.72;;;26.00;;
22849;SDS011;11591;44.792;10.358;2023-02-13T06:15:51;76.82;;;28.50;;
22849;SDS011;11591;44.792;10.358;2023-02-13T06:18:17;75.50;;;28.17;;
22849;SDS011;11591;44.792;10.358;2023-02-13T06:20:43;70.20;;;28.42;;
22849;SDS011;11591;44.792;10.358;2023-02-13T06:23:09;80.97;;;30.80;;
22849;SDS011;11591;44.792;10.358;2023-02-13T06:25:34;76.60;;;29.35;;
22849;SDS011;11591;44.792;10.358;2023-02-13T06:28:01;70.70;;;28.27;;
22849;SDS011;11591;44.792;10.358;2023-02-13T06:30:28;72.75;;;29.55;;
22849;SDS011;11591;44.792;10.358;2023-02-13T06:32:54;78.68;;;29.77;;
22849;SDS011;11591;44.792;10.358;2023-02-13T06:35:20;74.50;;;30.17;;
22849;SDS011;11591;44.792;10.358;2023-02-13T06:37:46;76.53;;;31.80;;
22849;SDS011;11591;44.792;10.358;2023-02-13T06:40:13;83.55;;;32.85;;
22849;SDS011;11591;44.792;10.358;2023-02-13T06:42:44;83.07;;;32.13;;
22849;SDS011;11591;44.792;10.358;2023-02-13T06:45:10;80.53;;;32.00;;
22849;SDS011;11591;44.792;10.358;2023-02-13T06:47:40;79.90;;;31.58;;
22849;SDS011;11591;44.792;10.358;2023-02-13T06:50:07;83.15;;;30.90;;
22849;SDS011;11591;44.792;10.358;2023-02-13T06:52:33;74.47;;;29.65;;
22849;SDS011;11591;44.792;10.358;2023-02-13T06:55:00;82.75;;;32.03;;
22849;SDS011;11591;44.792;10.358;2023-02-13T06:57:26;86.20;;;32.25;;
22849;SDS011;11591;44.792;10.358;2023-02-13T06:59:51;80.65;;;32.63;;
22849;SDS011;11591;44.792;10.358;2023-02-13T07:02:17;86.95;;;34.08;;
22849;SDS011;11591;44.792;10.358;2023-02-13T07:04:43;95.40;;;33.55;;
22849;SDS011;11591;44.792;10.358;2023-02-13T07:07:09;85.47;;;34.47;;
22849;SDS011;11591;44.792;10.358;2023-02-13T07:09:35;92.47;;;35.03;;
22849;SDS011;11591;44.792;10.358;2023-02-13T07:12:02;78.50;;;32.70;;
22849;SDS011;11591;44.792;10.358;2023-02-13T07:14:28;85.75;;;34.78;;
22849;SDS011;11591;44.792;10.358;2023-02-13T07:16:54;94.25;;;33.75;;
22849;SDS011;11591;44.792;10.358;2023-02-13T07:19:20;91.47;;;36.20;;
22849;SDS011;11591;44.792;10.358;2023-02-13T07:21:46;93.80;;;36.40;;
22849;SDS011;11591;44.792;10.358;2023-02-13T07:24:12;83.15;;;33.67;;
22849;SDS011;11591;44.792;10.358;2023-02-13T07:26:38;89.68;;;35.10;;
22849;SDS011;11591;44.792;10.358;2023-02-13T07:29:03;91.70;;;35.60;;
22849;SDS011;11591;44.792;10.358;2023-02-13T07:31:33;80.47;;;32.42;;
22849;SDS011;11591;44.792;10.358;2023-02-13T07:34:00;86.22;;;32.97;;
22849;SDS011;11591;44.792;10.358;2023-02-13T07:36:26;84.68;;;33.72;;
22849;SDS011;11591;44.792;10.358;2023-02-13T07:38:52;88.88;;;34.20;;
22849;SDS011;11591;44.792;10.358;2023-02-13T07:41:18;80.10;;;32.90;;
22849;SDS011;11591;44.792;10.358;2023-02-13T07:43:45;82.45;;;32.67;;
22849;SDS011;11591;44.792;10.358;2023-02-13T07:46:10;95.75;;;35.78;;
22849;SDS011;11591;44.792;10.358;2023-02-13T07:48:36;95.93;;;36.20;;
22849;SDS011;11591;44.792;10.358;2023-02-13T07:51:03;97.70;;;37.80;;
22849;SDS011;11591;44.792;10.358;2023-02-13T07:53:29;92.63;;;35.10;;
22849;SDS011;11591;44.792;10.358;2023-02-13T07:55:55;102.63;;;35.85;;
22849;SDS011;11591;44.792;10.358;2023-02-13T07:58:21;96.55;;;37.08;;
22849;SDS011;11591;44.792;10.358;2023-02-13T08:00:47;101.55;;;37.75;;
22849;SDS011;11591;44.792;10.358;2023-02-13T08:03:13;100.65;;;37.25;;
22849;SDS011;11591;44.792;10.358;2023-02-13T08:05:39;87.47;;;36.67;;
22849;SDS011;11591;44.792;10.358;2023-02-13T08:08:05;86.57;;;36.67;;
22849;SDS011;11591;44.792;10.358;2023-02-13T08:10:31;102.47;;;40.38;;
22849;SDS011;11591;44.792;10.358;2023-02-13T08:13:15;103.65;;;41.15;;
22849;SDS011;11591;44.792;10.358;2023-02-13T08:15:42;104.18;;;42.42;;
22849;SDS011;11591;44.792;10.358;2023-02-13T08:18:11;115.13;;;41.88;;
22849;SDS011;11591;44.792;10.358;2023-02-13T08:20:37;109.50;;;42.45;;
22849;SDS011;11591;44.792;10.358;2023-02-13T08:23:06;101.15;;;43.03;;
22849;SDS011;11591;44.792;10.358;2023-02-13T08:25:36;96.43;;;41.38;;
22849;SDS011;11591;44.792;10.358;2023-02-13T08:28:03;100.57;;;42.17;;
22849;SDS011;11591;44.792;10.358;2023-02-13T08:30:29;108.03;;;41.42;;
22849;SDS011;11591;44.792;10.358;2023-02-13T08:32:55;100.65;;;40.97;;
22849;SDS011;11591;44.792;10.358;2023-02-13T08:35:22;99.15;;;41.60;;
22849;SDS011;11591;44.792;10.358;2023-02-13T08:37:51;105.32;;;41.70;;
22849;SDS011;11591;44.792;10.358;2023-02-13T08:40:17;100.43;;;41.38;;
22849;SDS011;11591;44.792;10.358;2023-02-13T08:42:43;110.90;;;42.30;;
22849;SDS011;11591;44.792;10.358;2023-02-13T08:45:10;92.78;;;40.20;;
22849;SDS011;11591;44.792;10.358;2023-02-13T08:47:36;101.63;;;41.80;;
22849;SDS011;11591;44.792;10.358;2023-02-13T08:50:04;101.40;;;40.47;;
22849;SDS011;11591;44.792;10.358;2023-02-13T08:52:30;99.35;;;40.35;;
22849;SDS011;11591;44.792;10.358;2023-02-13T08:54:56;99.88;;;41.47;;
22849;SDS011;11591;44.792;10.358;2023-02-13T08:57:22;105.00;;;42.80;;
22849;SDS011;11591;44.792;10.358;2023-02-13T08:59:47;102.88;;;41.05;;
22849;SDS011;11591;44.792;10.358;2023-02-13T09:02:13;102.32;;;42.72;;
22849;SDS011;11591;44.792;10.358;2023-02-13T09:04:39;104.85;;;43.17;;
22849;SDS011;11591;44.792;10.358;2023-02-13T09:07:05;97.57;;;42.10;;
22849;SDS011;11591;44.792;10.358;2023-02-13T09:09:31;106.03;;;42.35;;
22849;SDS011;11591;44.792;10.358;2023-02-13T09:11:57;100.45;;;41.33;;
22849;SDS011;11591;44.792;10.358;2023-02-13T09:14:23;103.95;;;42.47;;
22849;SDS011;11591;44.792;10.358;2023-02-13T09:16:49;104.18;;;43.33;;
22849;SDS011;11591;44.792;10.358;2023-02-13T09:19:15;102.40;;;41.85;;
22849;SDS011;11591;44.792;10.358;2023-02-13T09:21:41;111.25;;;44.25;;
22849;SDS011;11591;44.792;10.358;2023-02-13T09:24:07;112.07;;;46.60;;
22849;SDS011;11591;44.792;10.358;2023-02-13T09:26:34;110.60;;;44.90;;
22849;SDS011;11591;44.792;10.358;2023-02-13T09:28:59;107.70;;;44.45;;
22849;SDS011;11591;44.792;10.358;2023-02-13T09:31:25;115.93;;;45.70;;
22849;SDS011;11591;44.792;10.358;2023-02-13T09:33:51;120.70;;;47.28;;
22849;SDS011;11591;44.792;10.358;2023-02-13T09:36:18;115.60;;;47.70;;
22849;SDS011;11591;44.792;10.358;2023-02-13T09:38:46;119.38;;;46.67;;
22849;SDS011;11591;44.792;10.358;2023-02-13T09:41:18;117.45;;;46.83;;
22849;SDS011;11591;44.792;10.358;2023-02-13T09:43:53;111.28;;;46.28;;
22849;SDS011;11591;44.792;10.358;2023-02-13T09:48:59;109.88;;;46.55;;
22849;SDS011;11591;44.792;10.358;2023-02-13T09:51:49;112.78;;;47.40;;
22849;SDS011;11591;44.792;10.358;2023-02-13T09:54:20;114.43;;;46.78;;
22849;SDS011;11591;44.792;10.358;2023-02-13T10:07:49;120.50;;;50.55;;
22849;SDS011;11591;44.792;10.358;2023-02-13T10:10:47;122.82;;;49.42;;
22849;SDS011;11591;44.792;10.358;2023-02-13T10:18:40;119.75;;;50.92;;
22849;SDS011;11591;44.792;10.358;2023-02-13T10:21:20;117.43;;;48.20;;
22849;SDS011;11591;44.792;10.358;2023-02-13T10:26:33;117.20;;;50.00;;
22849;SDS011;11591;44.792;10.358;2023-02-13T10:32:01;111.28;;;48.22;;
22849;SDS011;11591;44.792;10.358;2023-02-13T10:34:30;119.25;;;47.58;;
22849;SDS011;11591;44.792;10.358;2023-02-13T10:37:01;121.00;;;48.97;;
22849;SDS011;11591;44.792;10.358;2023-02-13T10:39:29;120.82;;;49.45;;
22849;SDS011;11591;44.792;10.358;2023-02-13T10:42:02;116.28;;;47.78;;
22849;SDS011;11591;44.792;10.358;2023-02-13T10:50:05;114.35;;;47.40;;
22849;SDS011;11591;44.792;10.358;2023-02-13T10:53:13;112.47;;;46.47;;
22849;SDS011;11591;44.792;10.358;2023-02-13T10:56:06;111.28;;;45.03;;
22849;SDS011;11591;44.792;10.358;2023-02-13T10:58:53;107.70;;;45.35;;
22849;SDS011;11591;44.792;10.358;2023-02-13T11:01:56;113.25;;;45.38;;
22849;SDS011;11591;44.792;10.358;2023-02-13T11:04:33;106.60;;;46.22;;
22849;SDS011;11591;44.792;10.358;2023-02-13T11:07:00;104.13;;;45.17;;
22849;SDS011;11591;44.792;10.358;2023-02-13T11:09:29;111.68;;;46.63;;
22849;SDS011;11591;44.792;10.358;2023-02-13T11:14:55;107.20;;;46.05;;
22849;SDS011;11591;44.792;10.358;2023-02-13T11:17:23;118.15;;;46.78;;
22849;SDS011;11591;44.792;10.358;2023-02-13T11:19:52;101.55;;;44.85;;
22849;SDS011;11591;44.792;10.358;2023-02-13T11:22:38;103.53;;;43.97;;
22849;SDS011;11591;44.792;10.358;2023-02-13T11:27:48;106.18;;;45.53;;
22849;SDS011;11591;44.792;10.358;2023-02-13T11:30:33;108.60;;;45.58;;
22849;SDS011;11591;44.792;10.358;2023-02-13T11:33:02;102.70;;;44.85;;
22849;SDS011;11591;44.792;10.358;2023-02-13T11:35:45;105.63;;;44.95;;
22849;SDS011;11591;44.792;10.358;2023-02-13T11:38:12;99.20;;;44.67;;
22849;SDS011;11591;44.792;10.358;2023-02-13T11:40:43;98.28;;;42.35;;
22849;SDS011;11591;44.792;10.358;2023-02-13T11:43:28;105.60;;;44.30;;
22849;SDS011;11591;44.792;10.358;2023-02-13T11:51:45;97.80;;;42.05;;
22849;SDS011;11591;44.792;10.358;2023-02-13T11:54:19;100.05;;;43.35;;
22849;SDS011;11591;44.792;10.358;2023-02-13T11:56:50;104.07;;;42.13;;
22849;SDS011;11591;44.792;10.358;2023-02-13T11:59:40;95.20;;;42.38;;
22849;SDS011;11591;44.792;10.358;2023-02-13T12:04:39;104.70;;;44.38;;
22849;SDS011;11591;44.792;10.358;2023-02-13T12:07:19;100.63;;;41.72;;
22849;SDS011;11591;44.792;10.358;2023-02-13T12:10:32;92.90;;;40.63;;
22849;SDS011;11591;44.792;10.358;2023-02-13T12:15:28;84.38;;;36.45;;
22849;SDS011;11591;44.792;10.358;2023-02-13T12:18:11;87.10;;;37.95;;
22849;SDS011;11591;44.792;10.358;2023-02-13T12:23:32;72.60;;;34.55;;
22849;SDS011;11591;44.792;10.358;2023-02-13T12:26:32;79.05;;;34.45;;
22849;SDS011;11591;44.792;10.358;2023-02-13T12:34:40;77.55;;;33.97;;
22849;SDS011;11591;44.792;10.358;2023-02-13T12:37:18;70.95;;;32.83;;
22849;SDS011;11591;44.792;10.358;2023-02-13T13:22:20;66.65;;;29.52;;
22849;SDS011;11591;44.792;10.358;2023-02-13T13:24:56;74.30;;;31.52;;
22849;SDS011;11591;44.792;10.358;2023-02-13T13:27:45;70.82;;;30.35;;
22849;SDS011;11591;44.792;10.358;2023-02-13T13:30:25;62.63;;;29.77;;
22849;SDS011;11591;44.792;10.358;2023-02-13T13:32:59;62.95;;;30.27;;
22849;SDS011;11591;44.792;10.358;2023-02-13T13:35:30;60.05;;;29.13;;
22849;SDS011;11591;44.792;10.358;2023-02-13T13:38:09;60.38;;;28.25;;
22849;SDS011;11591;44.792;10.358;2023-02-13T13:40:50;75.43;;;33.80;;
22849;SDS011;11591;44.792;10.358;2023-02-13T13:43:42;64.88;;;30.65;;
22849;SDS011;11591;44.792;10.358;2023-02-13T13:51:44;61.45;;;28.88;;
22849;SDS011;11591;44.792;10.358;2023-02-13T14:02:25;53.13;;;26.90;;
22849;SDS011;11591;44.792;10.358;2023-02-13T14:07:35;51.50;;;27.42;;
22849;SDS011;11591;44.792;10.358;2023-02-13T14:10:03;52.40;;;29.13;;
22849;SDS011;11591;44.792;10.358;2023-02-13T14:14:56;45.45;;;26.25;;
22849;SDS011;11591;44.792;10.358;2023-02-13T14:23:06;50.95;;;28.27;;
22849;SDS011;11591;44.792;10.358;2023-02-13T14:28:42;48.03;;;28.67;;
22849;SDS011;11591;44.792;10.358;2023-02-13T14:36:35;45.95;;;27.70;;
22849;SDS011;11591;44.792;10.358;2023-02-13T14:39:05;43.28;;;25.42;;
22849;SDS011;11591;44.792;10.358;2023-02-13T14:42:01;44.45;;;25.40;;
22849;SDS011;11591;44.792;10.358;2023-02-13T14:44:52;46.88;;;25.23;;
22849;SDS011;11591;44.792;10.358;2023-02-13T14:47:23;38.80;;;23.30;;
22849;SDS011;11591;44.792;10.358;2023-02-13T14:50:00;41.15;;;23.63;;
22849;SDS011;11591;44.792;10.358;2023-02-13T14:52:30;37.75;;;23.38;;
22849;SDS011;11591;44.792;10.358;2023-02-13T14:55:01;39.65;;;23.75;;
22849;SDS011;11591;44.792;10.358;2023-02-13T14:57:28;41.38;;;24.75;;
22849;SDS011;11591;44.792;10.358;2023-02-13T15:00:00;39.05;;;24.48;;
22849;SDS011;11591;44.792;10.358;2023-02-13T15:02:38;43.05;;;24.73;;
22849;SDS011;11591;44.792;10.358;2023-02-13T15:05:11;39.45;;;23.27;;
22849;SDS011;11591;44.792;10.358;2023-02-13T15:07:41;41.17;;;24.17;;
22849;SDS011;11591;44.792;10.358;2023-02-13T15:10:40;41.85;;;25.13;;
22849;SDS011;11591;44.792;10.358;2023-02-13T15:13:14;43.17;;;25.17;;
22849;SDS011;11591;44.792;10.358;2023-02-13T15:16:01;43.42;;;23.83;;
22849;SDS011;11591;44.792;10.358;2023-02-13T15:18:51;41.42;;;24.15;;
22849;SDS011;11591;44.792;10.358;2023-02-13T15:21:20;42.30;;;24.52;;
22849;SDS011;11591;44.792;10.358;2023-02-13T15:23:51;48.63;;;25.30;;
22849;SDS011;11591;44.792;10.358;2023-02-13T15:26:20;45.72;;;25.45;;
22849;SDS011;11591;44.792;10.358;2023-02-13T15:31:30;45.67;;;26.50;;
22849;SDS011;11591;44.792;10.358;2023-02-13T15:33:57;48.88;;;27.20;;
22849;SDS011;11591;44.792;10.358;2023-02-13T15:36:26;43.08;;;25.50;;
22849;SDS011;11591;44.792;10.358;2023-02-13T15:39:03;47.60;;;26.73;;
22849;SDS011;11591;44.792;10.358;2023-02-13T15:41:42;51.33;;;26.75;;
22849;SDS011;11591;44.792;10.358;2023-02-13T15:44:25;47.65;;;25.23;;
22849;SDS011;11591;44.792;10.358;2023-02-13T15:47:06;42.15;;;25.55;;
22849;SDS011;11591;44.792;10.358;2023-02-13T15:49:44;48.55;;;26.23;;
22849;SDS011;11591;44.792;10.358;2023-02-13T15:52:24;46.40;;;26.05;;
22849;SDS011;11591;44.792;10.358;2023-02-13T15:54:56;49.40;;;26.33;;
22849;SDS011;11591;44.792;10.358;2023-02-13T15:57:23;46.45;;;25.88;;
22849;SDS011;11591;44.792;10.358;2023-02-13T15:59:51;46.75;;;26.42;;
22849;SDS011;11591;44.792;10.358;2023-02-13T16:02:23;49.83;;;26.63;;
22849;SDS011;11591;44.792;10.358;2023-02-13T16:04:54;47.63;;;26.55;;
22849;SDS011;11591;44.792;10.358;2023-02-13T16:07:20;47.00;;;25.95;;
22849;SDS011;11591;44.792;10.358;2023-02-13T16:09:46;47.00;;;26.30;;
22849;SDS011;11591;44.792;10.358;2023-02-13T16:14:48;56.85;;;28.65;;
22849;SDS011;11591;44.792;10.358;2023-02-13T16:17:39;47.45;;;26.20;;
22849;SDS011;11591;44.792;10.358;2023-02-13T16:27:48;47.28;;;25.38;;
22849;SDS011;11591;44.792;10.358;2023-02-13T16:32:49;53.83;;;26.83;;
22849;SDS011;11591;44.792;10.358;2023-02-13T16:37:58;54.38;;;27.80;;
22849;SDS011;11591;44.792;10.358;2023-02-13T16:43:31;57.67;;;27.90;;
22849;SDS011;11591;44.792;10.358;2023-02-13T16:51:35;60.95;;;27.35;;
22849;SDS011;11591;44.792;10.358;2023-02-13T16:56:45;56.67;;;28.48;;
22849;SDS011;11591;44.792;10.358;2023-02-13T17:01:44;67.38;;;30.13;;
22849;SDS011;11591;44.792;10.358;2023-02-13T17:04:21;59.90;;;27.58;;
22849;SDS011;11591;44.792;10.358;2023-02-13T17:06:54;60.20;;;27.85;;
22849;SDS011;11591;44.792;10.358;2023-02-13T17:09:20;56.95;;;26.58;;
22849;SDS011;11591;44.792;10.358;2023-02-13T17:11:50;68.13;;;27.55;;
22849;SDS011;11591;44.792;10.358;2023-02-13T17:14:18;59.22;;;26.77;;
22849;SDS011;11591;44.792;10.358;2023-02-13T17:16:45;60.40;;;26.65;;
22849;SDS011;11591;44.792;10.358;2023-02-13T17:19:12;57.15;;;26.08;;
22849;SDS011;11591;44.792;10.358;2023-02-13T17:21:38;54.47;;;24.50;;
22849;SDS011;11591;44.792;10.358;2023-02-13T17:24:04;55.63;;;25.65;;
22849;SDS011;11591;44.792;10.358;2023-02-13T17:26:31;60.05;;;27.30;;
22849;SDS011;11591;44.792;10.358;2023-02-13T17:28:57;55.00;;;25.50;;
22849;SDS011;11591;44.792;10.358;2023-02-13T17:31:22;58.17;;;26.70;;
22849;SDS011;11591;44.792;10.358;2023-02-13T17:33:48;56.70;;;25.88;;
22849;SDS011;11591;44.792;10.358;2023-02-13T17:36:14;56.35;;;26.65;;
22849;SDS011;11591;44.792;10.358;2023-02-13T17:38:40;56.90;;;26.65;;
22849;SDS011;11591;44.792;10.358;2023-02-13T17:41:10;57.40;;;25.63;;
22849;SDS011;11591;44.792;10.358;2023-02-13T17:43:38;52.92;;;24.38;;
22849;SDS011;11591;44.792;10.358;2023-02-13T17:46:04;56.30;;;25.60;;
22849;SDS011;11591;44.792;10.358;2023-02-13T17:48:30;53.33;;;25.33;;
22849;SDS011;11591;44.792;10.358;2023-02-13T17:50:56;68.15;;;30.30;;
22849;SDS011;11591;44.792;10.358;2023-02-13T17:53:23;70.97;;;32.05;;
22849;SDS011;11591;44.792;10.358;2023-02-13T17:55:50;68.63;;;30.27;;